sensor_id;sensor_type;location;lat;lon;timestamp;temperature;humidity
38941;DHT22;43236;47.208;7.518;2023-11-22T00:00:47;11.60;99.10
38941;DHT22;43236;47.208;7.518;2023-11-22T00:03:34;11.60;99.00
38941;DHT22;43236;47.208;7.518;2023-11-22T00:06:21;11.60;98.90
38941;DHT22;43236;47.208;7.518;2023-11-22T00:09:09;11.60;98.90
38941;DHT22;43236;47.208;7.518;2023-11-22T00:11:56;11.60;98.70
38941;DHT22;43236;47.208;7.518;2023-11-22T00:14:45;11.60;99.20
38941;DHT22;43236;47.208;7.518;2023-11-22T00:17:33;11.60;99.10
38941;DHT22;43236;47.208;7.518;2023-11-22T00:20:20;11.60;99.10
38941;DHT22;43236;47.208;7.518;2023-11-22T00:23:07;11.60;99.10
38941;DHT22;43236;47.208;7.518;2023-11-22T00:25:55;11.60;98.90
38941;DHT22;43236;47.208;7.518;2023-11-22T00:28:43;11.60;98.60
38941;DHT22;43236;47.208;7.518;2023-11-22T00:31:30;11.60;98.90
38941;DHT22;43236;47.208;7.518;2023-11-22T00:34:17;11.60;98.80
38941;DHT22;43236;47.208;7.518;2023-11-22T00:37:04;11.60;98.90
38941;DHT22;43236;47.208;7.518;2023-11-22T00:39:51;11.60;98.80
38941;DHT22;43236;47.208;7.518;2023-11-22T00:42:40;11.60;99.00
38941;DHT22;43236;47.208;7.518;2023-11-22T00:45:29;11.60;99.00
38941;DHT22;43236;47.208;7.518;2023-11-22T00:48:16;11.50;99.00
38941;DHT22;43236;47.208;7.518;2023-11-22T00:51:03;11.50;99.00
38941;DHT22;43236;47.208;7.518;2023-11-22T00:53:54;11.50;98.70
38941;DHT22;43236;47.208;7.518;2023-11-22T00:56:41;11.50;98.70
38941;DHT22;43236;47.208;7.518;2023-11-22T00:59:29;11.50;99.30
38941;DHT22;43236;47.208;7.518;2023-11-22T01:02:16;11.50;99.20
38941;DHT22;43236;47.208;7.518;2023-11-22T01:05:05;11.50;98.90
38941;DHT22;43236;47.208;7.518;2023-11-22T01:07:53;11.50;99.10
38941;DHT22;43236;47.208;7.518;2023-11-22T01:10:40;11.50;98.80
38941;DHT22;43236;47.208;7.518;2023-11-22T01:13:27;11.50;99.00
38941;DHT22;43236;47.208;7.518;2023-11-22T01:16:16;11.50;99.20
38941;DHT22;43236;47.208;7.518;2023-11-22T01:19:03;11.50;99.50
38941;DHT22;43236;47.208;7.518;2023-11-22T01:21:50;11.50;99.40
38941;DHT22;43236;47.208;7.518;2023-11-22T01:24:37;11.50;99.50
38941;DHT22;43236;47.208;7.518;2023-11-22T01:27:24;11.50;99.10
38941;DHT22;43236;47.208;7.518;2023-11-22T01:30:11;11.50;99.00
38941;DHT22;43236;47.208;7.518;2023-11-22T01:33:00;11.50;99.10
38941;DHT22;43236;47.208;7.518;2023-11-22T01:35:47;11.50;99.10
38941;DHT22;43236;47.208;7.518;2023-11-22T01:38:35;11.50;99.70
38941;DHT22;43236;47.208;7.518;2023-11-22T01:41:25;11.50;99.50
38941;DHT22;43236;47.208;7.518;2023-11-22T01:44:12;11.50;99.40
38941;DHT22;43236;47.208;7.518;2023-11-22T01:46:59;11.50;99.60
38941;DHT22;43236;47.208;7.518;2023-11-22T01:49:47;11.50;99.50
38941;DHT22;43236;47.208;7.518;2023-11-22T01:52:34;11.50;99.70
38941;DHT22;43236;47.208;7.518;2023-11-22T01:55:22;11.50;99.70
38941;DHT22;43236;47.208;7.518;2023-11-22T01:58:09;11.50;99.80
38941;DHT22;43236;47.208;7.518;2023-11-22T02:00:57;11.50;99.80
38941;DHT22;43236;47.208;7.518;2023-11-22T02:03:45;11.40;99.60
38941;DHT22;43236;47.208;7.518;2023-11-22T02:06:34;11.40;99.70
38941;DHT22;43236;47.208;7.518;2023-11-22T02:09:21;11.40;99.70
38941;DHT22;43236;47.208;7.518;2023-11-22T02:12:08;11.40;99.90
38941;DHT22;43236;47.208;7.518;2023-11-22T02:14:55;11.40;99.90
38941;DHT22;43236;47.208;7.518;2023-11-22T02:17:43;11.40;99.90
38941;DHT22;43236;47.208;7.518;2023-11-22T02:20:30;11.30;99.90
38941;DHT22;43236;47.208;7.518;2023-11-22T02:23:19;11.40;99.90
38941;DHT22;43236;47.208;7.518;2023-11-22T02:26:06;11.40;99.90
38941;DHT22;43236;47.208;7.518;2023-11-22T02:28:54;11.40;99.90
38941;DHT22;43236;47.208;7.518;2023-11-22T02:31:42;11.40;99.60
38941;DHT22;43236;47.208;7.518;2023-11-22T02:34:29;11.40;99.20
38941;DHT22;43236;47.208;7.518;2023-11-22T02:37:16;11.50;99.60
38941;DHT22;43236;47.208;7.518;2023-11-22T02:40:14;11.40;99.60
38941;DHT22;43236;47.208;7.518;2023-11-22T02:43:03;11.40;99.50
38941;DHT22;43236;47.208;7.518;2023-11-22T02:45:54;11.40;99.50
38941;DHT22;43236;47.208;7.518;2023-11-22T02:48:41;11.40;99.40
38941;DHT22;43236;47.208;7.518;2023-11-22T02:51:29;11.40;99.40
38941;DHT22;43236;47.208;7.518;2023-11-22T02:54:16;11.40;99.90
38941;DHT22;43236;47.208;7.518;2023-11-22T02:57:05;11.40;99.90
38941;DHT22;43236;47.208;7.518;2023-11-22T02:59:52;11.40;99.90
38941;DHT22;43236;47.208;7.518;2023-11-22T03:02:39;11.40;99.90
38941;DHT22;43236;47.208;7.518;2023-11-22T03:05:27;11.40;99.90
38941;DHT22;43236;47.208;7.518;2023-11-22T03:08:14;11.40;99.60
38941;DHT22;43236;47.208;7.518;2023-11-22T03:11:01;11.30;99.80
38941;DHT22;43236;47.208;7.518;2023-11-22T03:13:50;11.30;99.90
38941;DHT22;43236;47.208;7.518;2023-11-22T03:16:38;11.30;99.90
38941;DHT22;43236;47.208;7.518;2023-11-22T03:19:25;11.40;99.90
38941;DHT22;43236;47.208;7.518;2023-11-22T03:22:12;11.30;99.90
38941;DHT22;43236;47.208;7.518;2023-11-22T03:24:59;11.40;99.80
38941;DHT22;43236;47.208;7.518;2023-11-22T03:27:46;11.40;99.90
38941;DHT22;43236;47.208;7.518;2023-11-22T03:30:35;11.40;99.90
38941;DHT22;43236;47.208;7.518;2023-11-22T03:33:23;11.40;99.60
38941;DHT22;43236;47.208;7.518;2023-11-22T03:36:10;11.30;99.90
38941;DHT22;43236;47.208;7.518;2023-11-22T03:38:58;11.30;99.90
38941;DHT22;43236;47.208;7.518;2023-11-22T03:41:45;11.40;99.90
38941;DHT22;43236;47.208;7.518;2023-11-22T03:44:32;11.30;99.90
38941;DHT22;43236;47.208;7.518;2023-11-22T03:47:21;11.30;99.40
38941;DHT22;43236;47.208;7.518;2023-11-22T03:50:08;11.30;99.60
38941;DHT22;43236;47.208;7.518;2023-11-22T03:52:55;11.30;99.50
38941;DHT22;43236;47.208;7.518;2023-11-22T03:55:42;11.30;99.50
38941;DHT22;43236;47.208;7.518;2023-11-22T03:58:29;11.30;99.40
38941;DHT22;43236;47.208;7.518;2023-11-22T04:01:16;11.30;99.40
38941;DHT22;43236;47.208;7.518;2023-11-22T04:04:06;11.30;99.40
38941;DHT22;43236;47.208;7.518;2023-11-22T04:06:54;11.20;99.30
38941;DHT22;43236;47.208;7.518;2023-11-22T04:09:41;11.20;99.60
38941;DHT22;43236;47.208;7.518;2023-11-22T04:12:28;11.20;99.70
38941;DHT22;43236;47.208;7.518;2023-11-22T04:15:15;11.30;99.50
38941;DHT22;43236;47.208;7.518;2023-11-22T04:18:02;11.20;99.20
38941;DHT22;43236;47.208;7.518;2023-11-22T04:20:51;11.20;99.40
38941;DHT22;43236;47.208;7.518;2023-11-22T04:23:38;11.20;99.90
38941;DHT22;43236;47.208;7.518;2023-11-22T04:26:25;11.20;99.70
38941;DHT22;43236;47.208;7.518;2023-11-22T04:29:12;11.30;99.80
38941;DHT22;43236;47.208;7.518;2023-11-22T04:31:59;11.30;99.80
38941;DHT22;43236;47.208;7.518;2023-11-22T04:34:46;11.30;99.30
38941;DHT22;43236;47.208;7.518;2023-11-22T04:37:35;11.30;99.50
38941;DHT22;43236;47.208;7.518;2023-11-22T04:40:22;11.30;99.80
38941;DHT22;43236;47.208;7.518;2023-11-22T04:43:09;11.20;99.30
38941;DHT22;43236;47.208;7.518;2023-11-22T04:45:56;11.20;99.50
38941;DHT22;43236;47.208;7.518;2023-11-22T04:48:43;11.20;99.40
38941;DHT22;43236;47.208;7.518;2023-11-22T04:51:30;11.20;99.50
38941;DHT22;43236;47.208;7.518;2023-11-22T04:54:19;11.20;99.90
38941;DHT22;43236;47.208;7.518;2023-11-22T04:57:06;11.20;99.90
38941;DHT22;43236;47.208;7.518;2023-11-22T04:59:53;11.20;99.90
38941;DHT22;43236;47.208;7.518;2023-11-22T05:02:40;11.10;99.90
38941;DHT22;43236;47.208;7.518;2023-11-22T05:05:27;11.10;99.70
38941;DHT22;43236;47.208;7.518;2023-11-22T05:08:14;11.10;99.70
38941;DHT22;43236;47.208;7.518;2023-11-22T05:11:03;11.10;99.30
38941;DHT22;43236;47.208;7.518;2023-11-22T05:13:50;11.10;99.70
38941;DHT22;43236;47.208;7.518;2023-11-22T05:16:37;11.10;99.50
38941;DHT22;43236;47.208;7.518;2023-11-22T05:19:24;11.00;99.50
38941;DHT22;43236;47.208;7.518;2023-11-22T05:22:11;11.00;99.80
38941;DHT22;43236;47.208;7.518;2023-11-22T05:24:58;11.00;99.70
38941;DHT22;43236;47.208;7.518;2023-11-22T05:27:46;11.00;99.40
38941;DHT22;43236;47.208;7.518;2023-11-22T05:30:33;10.90;99.60
38941;DHT22;43236;47.208;7.518;2023-11-22T05:33:21;10.90;99.40
38941;DHT22;43236;47.208;7.518;2023-11-22T05:36:08;10.90;99.40
38941;DHT22;43236;47.208;7.518;2023-11-22T05:38:57;10.90;99.20
38941;DHT22;43236;47.208;7.518;2023-11-22T05:41:44;10.90;99.30
38941;DHT22;43236;47.208;7.518;2023-11-22T05:44:33;10.90;98.80
38941;DHT22;43236;47.208;7.518;2023-11-22T05:47:20;10.90;98.80
38941;DHT22;43236;47.208;7.518;2023-11-22T05:50:07;10.80;99.10
38941;DHT22;43236;47.208;7.518;2023-11-22T05:52:55;10.80;98.80
38941;DHT22;43236;47.208;7.518;2023-11-22T05:55:42;10.80;98.90
38941;DHT22;43236;47.208;7.518;2023-11-22T05:58:29;10.80;98.90
38941;DHT22;43236;47.208;7.518;2023-11-22T06:01:18;10.80;98.80
38941;DHT22;43236;47.208;7.518;2023-11-22T06:04:05;10.80;98.70
38941;DHT22;43236;47.208;7.518;2023-11-22T06:06:55;10.80;98.10
38941;DHT22;43236;47.208;7.518;2023-11-22T06:09:42;10.70;97.90
38941;DHT22;43236;47.208;7.518;2023-11-22T06:12:29;10.70;97.60
38941;DHT22;43236;47.208;7.518;2023-11-22T06:15:16;10.70;97.50
38941;DHT22;43236;47.208;7.518;2023-11-22T06:18:06;10.70;96.30
38941;DHT22;43236;47.208;7.518;2023-11-22T06:20:53;10.60;95.60
38941;DHT22;43236;47.208;7.518;2023-11-22T06:23:40;10.50;96.10
38941;DHT22;43236;47.208;7.518;2023-11-22T06:26:27;10.50;95.80
38941;DHT22;43236;47.208;7.518;2023-11-22T06:29:14;10.40;95.60
38941;DHT22;43236;47.208;7.518;2023-11-22T06:32:01;10.40;95.70
38941;DHT22;43236;47.208;7.518;2023-11-22T06:34:49;10.40;95.60
38941;DHT22;43236;47.208;7.518;2023-11-22T06:37:37;10.40;95.50
38941;DHT22;43236;47.208;7.518;2023-11-22T06:40:24;10.20;95.40
38941;DHT22;43236;47.208;7.518;2023-11-22T06:43:11;10.20;95.70
38941;DHT22;43236;47.208;7.518;2023-11-22T06:45:58;10.10;95.40
38941;DHT22;43236;47.208;7.518;2023-11-22T06:48:46;10.00;95.30
38941;DHT22;43236;47.208;7.518;2023-11-22T06:51:36;9.90;96.20
38941;DHT22;43236;47.208;7.518;2023-11-22T06:54:23;9.80;96.10
38941;DHT22;43236;47.208;7.518;2023-11-22T06:57:10;9.80;96.00
38941;DHT22;43236;47.208;7.518;2023-11-22T06:59:57;9.60;95.90
38941;DHT22;43236;47.208;7.518;2023-11-22T07:02:44;9.60;96.00
38941;DHT22;43236;47.208;7.518;2023-11-22T07:05:31;9.60;95.90
38941;DHT22;43236;47.208;7.518;2023-11-22T07:08:20;9.50;95.30
38941;DHT22;43236;47.208;7.518;2023-11-22T07:11:07;9.30;95.60
38941;DHT22;43236;47.208;7.518;2023-11-22T07:13:56;9.30;96.00
38941;DHT22;43236;47.208;7.518;2023-11-22T07:16:43;9.30;95.80
38941;DHT22;43236;47.208;7.518;2023-11-22T07:19:30;9.30;95.60
38941;DHT22;43236;47.208;7.518;2023-11-22T07:22:17;9.40;95.70
38941;DHT22;43236;47.208;7.518;2023-11-22T07:25:07;9.50;96.20
38941;DHT22;43236;47.208;7.518;2023-11-22T07:28:00;9.60;95.40
38941;DHT22;43236;47.208;7.518;2023-11-22T07:30:47;9.70;95.50
38941;DHT22;43236;47.208;7.518;2023-11-22T07:33:35;9.80;95.10
38941;DHT22;43236;47.208;7.518;2023-11-22T07:36:22;9.90;95.10
38941;DHT22;43236;47.208;7.518;2023-11-22T07:39:10;10.00;93.60
38941;DHT22;43236;47.208;7.518;2023-11-22T07:41:59;10.00;93.10
38941;DHT22;43236;47.208;7.518;2023-11-22T07:44:46;10.00;92.40
38941;DHT22;43236;47.208;7.518;2023-11-22T07:47:33;10.10;92.90
38941;DHT22;43236;47.208;7.518;2023-11-22T07:50:20;10.10;91.70
38941;DHT22;43236;47.208;7.518;2023-11-22T07:53:10;10.10;92.60
38941;DHT22;43236;47.208;7.518;2023-11-22T07:55:57;10.20;92.70
38941;DHT22;43236;47.208;7.518;2023-11-22T07:58:45;10.10;91.20
38941;DHT22;43236;47.208;7.518;2023-11-22T08:01:33;10.10;90.90
38941;DHT22;43236;47.208;7.518;2023-11-22T08:04:20;10.00;91.10
38941;DHT22;43236;47.208;7.518;2023-11-22T08:07:07;10.00;91.40
38941;DHT22;43236;47.208;7.518;2023-11-22T08:09:54;10.10;91.60
38941;DHT22;43236;47.208;7.518;2023-11-22T08:12:41;10.10;91.20
38941;DHT22;43236;47.208;7.518;2023-11-22T08:15:29;10.10;90.90
38941;DHT22;43236;47.208;7.518;2023-11-22T08:18:17;10.20;91.90
38941;DHT22;43236;47.208;7.518;2023-11-22T08:21:04;10.20;91.70
38941;DHT22;43236;47.208;7.518;2023-11-22T08:23:51;10.20;90.40
38941;DHT22;43236;47.208;7.518;2023-11-22T08:26:39;10.00;88.50
38941;DHT22;43236;47.208;7.518;2023-11-22T08:29:26;10.00;89.50
38941;DHT22;43236;47.208;7.518;2023-11-22T08:32:14;10.00;90.40
38941;DHT22;43236;47.208;7.518;2023-11-22T08:35:03;10.10;90.10
38941;DHT22;43236;47.208;7.518;2023-11-22T08:37:53;10.10;88.80
38941;DHT22;43236;47.208;7.518;2023-11-22T08:40:43;10.20;90.40
38941;DHT22;43236;47.208;7.518;2023-11-22T08:43:30;10.20;90.90
38941;DHT22;43236;47.208;7.518;2023-11-22T08:46:17;10.30;91.10
38941;DHT22;43236;47.208;7.518;2023-11-22T08:49:06;10.40;91.70
38941;DHT22;43236;47.208;7.518;2023-11-22T08:51:53;10.50;92.00
38941;DHT22;43236;47.208;7.518;2023-11-22T08:54:40;10.60;92.30
38941;DHT22;43236;47.208;7.518;2023-11-22T08:57:27;10.70;91.80
38941;DHT22;43236;47.208;7.518;2023-11-22T09:00:16;10.70;91.00
38941;DHT22;43236;47.208;7.518;2023-11-22T09:03:08;10.80;91.30
38941;DHT22;43236;47.208;7.518;2023-11-22T09:05:58;10.80;91.20
38941;DHT22;43236;47.208;7.518;2023-11-22T09:08:45;10.90;91.30
38941;DHT22;43236;47.208;7.518;2023-11-22T09:11:35;11.00;91.40
38941;DHT22;43236;47.208;7.518;2023-11-22T09:14:23;11.00;90.00
38941;DHT22;43236;47.208;7.518;2023-11-22T09:17:10;11.00;90.90
38941;DHT22;43236;47.208;7.518;2023-11-22T09:19:57;11.00;90.20
38941;DHT22;43236;47.208;7.518;2023-11-22T09:22:46;11.00;91.00
38941;DHT22;43236;47.208;7.518;2023-11-22T09:25:34;11.10;91.00
38941;DHT22;43236;47.208;7.518;2023-11-22T09:28:22;11.10;91.00
38941;DHT22;43236;47.208;7.518;2023-11-22T09:31:09;11.00;90.50
38941;DHT22;43236;47.208;7.518;2023-11-22T09:33:59;11.00;90.70
38941;DHT22;43236;47.208;7.518;2023-11-22T09:36:46;10.90;90.90
38941;DHT22;43236;47.208;7.518;2023-11-22T09:39:35;10.90;90.40
38941;DHT22;43236;47.208;7.518;2023-11-22T09:42:22;10.80;90.10
38941;DHT22;43236;47.208;7.518;2023-11-22T09:45:09;10.80;90.00
38941;DHT22;43236;47.208;7.518;2023-11-22T09:47:56;10.80;90.40
38941;DHT22;43236;47.208;7.518;2023-11-22T09:50:49;10.80;90.10
38941;DHT22;43236;47.208;7.518;2023-11-22T09:53:41;10.90;90.20
38941;DHT22;43236;47.208;7.518;2023-11-22T09:56:32;10.90;90.50
38941;DHT22;43236;47.208;7.518;2023-11-22T09:59:23;10.90;90.40
38941;DHT22;43236;47.208;7.518;2023-11-22T10:02:10;11.00;90.90
38941;DHT22;43236;47.208;7.518;2023-11-22T10:04:57;11.00;90.40
38941;DHT22;43236;47.208;7.518;2023-11-22T10:07:44;11.00;90.60
38941;DHT22;43236;47.208;7.518;2023-11-22T10:10:34;11.00;90.70
38941;DHT22;43236;47.208;7.518;2023-11-22T10:13:24;11.00;90.60
38941;DHT22;43236;47.208;7.518;2023-11-22T10:16:12;10.90;90.70
38941;DHT22;43236;47.208;7.518;2023-11-22T10:19:01;10.90;91.30
38941;DHT22;43236;47.208;7.518;2023-11-22T10:22:02;10.90;90.90
38941;DHT22;43236;47.208;7.518;2023-11-22T10:24:50;10.90;91.30
38941;DHT22;43236;47.208;7.518;2023-11-22T10:27:41;11.00;91.60
38941;DHT22;43236;47.208;7.518;2023-11-22T10:30:29;11.10;91.40
38941;DHT22;43236;47.208;7.518;2023-11-22T10:33:16;11.10;90.80
38941;DHT22;43236;47.208;7.518;2023-11-22T10:36:04;11.10;91.00
38941;DHT22;43236;47.208;7.518;2023-11-22T10:38:51;11.10;91.40
38941;DHT22;43236;47.208;7.518;2023-11-22T10:41:38;11.20;91.50
38941;DHT22;43236;47.208;7.518;2023-11-22T10:44:25;11.20;91.50
38941;DHT22;43236;47.208;7.518;2023-11-22T10:47:15;11.30;91.30
38941;DHT22;43236;47.208;7.518;2023-11-22T10:50:03;11.30;91.00
38941;DHT22;43236;47.208;7.518;2023-11-22T10:52:53;11.30;90.80
38941;DHT22;43236;47.208;7.518;2023-11-22T10:55:45;11.30;90.80
38941;DHT22;43236;47.208;7.518;2023-11-22T10:58:33;11.40;90.80
38941;DHT22;43236;47.208;7.518;2023-11-22T11:01:23;11.40;91.10
38941;DHT22;43236;47.208;7.518;2023-11-22T11:04:19;11.40;90.60
38941;DHT22;43236;47.208;7.518;2023-11-22T11:07:10;11.40;91.10
38941;DHT22;43236;47.208;7.518;2023-11-22T11:10:00;11.40;90.70
38941;DHT22;43236;47.208;7.518;2023-11-22T11:12:48;11.30;90.60
38941;DHT22;43236;47.208;7.518;2023-11-22T11:15:35;11.20;90.60
38941;DHT22;43236;47.208;7.518;2023-11-22T11:18:22;11.10;91.00
38941;DHT22;43236;47.208;7.518;2023-11-22T11:21:11;11.10;91.20
38941;DHT22;43236;47.208;7.518;2023-11-22T11:23:58;11.00;91.20
38941;DHT22;43236;47.208;7.518;2023-11-22T11:26:50;11.00;90.80
38941;DHT22;43236;47.208;7.518;2023-11-22T11:29:39;10.90;90.70
38941;DHT22;43236;47.208;7.518;2023-11-22T11:32:30;10.90;91.10
38941;DHT22;43236;47.208;7.518;2023-11-22T11:35:18;10.90;90.90
38941;DHT22;43236;47.208;7.518;2023-11-22T11:38:32;10.80;90.70
38941;DHT22;43236;47.208;7.518;2023-11-22T11:41:24;10.70;90.80
38941;DHT22;43236;47.208;7.518;2023-11-22T11:44:12;10.60;90.80
38941;DHT22;43236;47.208;7.518;2023-11-22T11:47:08;10.60;91.10
38941;DHT22;43236;47.208;7.518;2023-11-22T11:49:56;10.60;91.50
38941;DHT22;43236;47.208;7.518;2023-11-22T11:52:43;10.60;91.20
38941;DHT22;43236;47.208;7.518;2023-11-22T11:55:31;10.70;91.00
38941;DHT22;43236;47.208;7.518;2023-11-22T11:58:18;10.70;91.40
38941;DHT22;43236;47.208;7.518;2023-11-22T12:01:05;10.80;91.20
38941;DHT22;43236;47.208;7.518;2023-11-22T12:03:52;10.80;91.00
38941;DHT22;43236;47.208;7.518;2023-11-22T12:06:39;10.80;90.70
38941;DHT22;43236;47.208;7.518;2023-11-22T12:09:27;10.90;91.10
38941;DHT22;43236;47.208;7.518;2023-11-22T12:12:17;10.90;90.90
38941;DHT22;43236;47.208;7.518;2023-11-22T12:15:04;10.90;91.00
38941;DHT22;43236;47.208;7.518;2023-11-22T12:17:52;10.90;90.60
38941;DHT22;43236;47.208;7.518;2023-11-22T12:20:42;10.90;90.40
38941;DHT22;43236;47.208;7.518;2023-11-22T12:23:41;10.90;90.30
38941;DHT22;43236;47.208;7.518;2023-11-22T12:26:28;10.90;90.50
38941;DHT22;43236;47.208;7.518;2023-11-22T12:29:18;11.00;90.50
38941;DHT22;43236;47.208;7.518;2023-11-22T12:32:06;11.20;90.40
38941;DHT22;43236;47.208;7.518;2023-11-22T12:34:53;11.20;90.10
38941;DHT22;43236;47.208;7.518;2023-11-22T12:37:40;11.30;89.90
38941;DHT22;43236;47.208;7.518;2023-11-22T12:40:28;11.30;89.60
38941;DHT22;43236;47.208;7.518;2023-11-22T12:43:16;11.40;88.90
38941;DHT22;43236;47.208;7.518;2023-11-22T12:46:06;11.30;89.40
38941;DHT22;43236;47.208;7.518;2023-11-22T12:49:05;11.30;89.00
38941;DHT22;43236;47.208;7.518;2023-11-22T12:51:54;11.30;88.00
38941;DHT22;43236;47.208;7.518;2023-11-22T12:54:41;11.30;88.00
38941;DHT22;43236;47.208;7.518;2023-11-22T12:57:33;11.30;88.40
38941;DHT22;43236;47.208;7.518;2023-11-22T13:00:20;11.30;88.20
38941;DHT22;43236;47.208;7.518;2023-11-22T13:03:09;11.20;87.50
38941;DHT22;43236;47.208;7.518;2023-11-22T13:05:57;11.20;88.90
38941;DHT22;43236;47.208;7.518;2023-11-22T13:08:44;11.10;87.20
38941;DHT22;43236;47.208;7.518;2023-11-22T13:11:31;11.00;86.30
38941;DHT22;43236;47.208;7.518;2023-11-22T13:14:18;11.00;85.80
38941;DHT22;43236;47.208;7.518;2023-11-22T13:17:05;10.90;85.90
38941;DHT22;43236;47.208;7.518;2023-11-22T13:19:54;10.80;85.20
38941;DHT22;43236;47.208;7.518;2023-11-22T13:22:41;10.70;85.20
38941;DHT22;43236;47.208;7.518;2023-11-22T13:25:28;10.60;85.00
38941;DHT22;43236;47.208;7.518;2023-11-22T13:28:15;10.40;85.10
38941;DHT22;43236;47.208;7.518;2023-11-22T13:31:02;10.30;85.20
38941;DHT22;43236;47.208;7.518;2023-11-22T13:33:49;10.20;85.20
38941;DHT22;43236;47.208;7.518;2023-11-22T13:36:40;10.10;85.50
38941;DHT22;43236;47.208;7.518;2023-11-22T13:39:27;9.90;87.10
38941;DHT22;43236;47.208;7.518;2023-11-22T13:42:19;10.00;86.80
38941;DHT22;43236;47.208;7.518;2023-11-22T13:45:06;10.00;86.50
38941;DHT22;43236;47.208;7.518;2023-11-22T13:47:54;10.00;85.60
38941;DHT22;43236;47.208;7.518;2023-11-22T13:50:46;10.10;86.10
38941;DHT22;43236;47.208;7.518;2023-11-22T13:53:34;10.10;86.00
38941;DHT22;43236;47.208;7.518;2023-11-22T13:56:23;10.20;86.10
38941;DHT22;43236;47.208;7.518;2023-11-22T13:59:10;10.30;85.50
38941;DHT22;43236;47.208;7.518;2023-11-22T14:01:58;10.10;83.90
38941;DHT22;43236;47.208;7.518;2023-11-22T14:04:45;10.00;84.60
38941;DHT22;43236;47.208;7.518;2023-11-22T14:07:32;9.90;85.60
38941;DHT22;43236;47.208;7.518;2023-11-22T14:10:21;9.90;85.60
38941;DHT22;43236;47.208;7.518;2023-11-22T14:13:08;9.90;85.50
38941;DHT22;43236;47.208;7.518;2023-11-22T14:15:55;9.90;86.70
38941;DHT22;43236;47.208;7.518;2023-11-22T14:18:42;9.90;85.10
38941;DHT22;43236;47.208;7.518;2023-11-22T14:21:30;9.90;85.90
38941;DHT22;43236;47.208;7.518;2023-11-22T14:24:19;9.80;86.40
38941;DHT22;43236;47.208;7.518;2023-11-22T14:27:07;9.80;86.30
38941;DHT22;43236;47.208;7.518;2023-11-22T14:29:55;9.70;85.60
38941;DHT22;43236;47.208;7.518;2023-11-22T14:32:43;9.70;85.50
38941;DHT22;43236;47.208;7.518;2023-11-22T14:35:30;9.60;85.00
38941;DHT22;43236;47.208;7.518;2023-11-22T14:38:17;9.60;85.20
38941;DHT22;43236;47.208;7.518;2023-11-22T14:41:04;9.50;84.90
38941;DHT22;43236;47.208;7.518;2023-11-22T14:43:53;9.50;85.50
38941;DHT22;43236;47.208;7.518;2023-11-22T14:46:40;9.60;86.30
38941;DHT22;43236;47.208;7.518;2023-11-22T14:49:28;9.60;85.60
38941;DHT22;43236;47.208;7.518;2023-11-22T14:52:15;9.70;85.50
38941;DHT22;43236;47.208;7.518;2023-11-22T14:55:03;9.80;86.00
38941;DHT22;43236;47.208;7.518;2023-11-22T14:57:51;9.80;86.70
38941;DHT22;43236;47.208;7.518;2023-11-22T15:00:41;9.90;85.50
38941;DHT22;43236;47.208;7.518;2023-11-22T15:03:28;10.00;83.90
38941;DHT22;43236;47.208;7.518;2023-11-22T15:06:15;10.00;84.60
38941;DHT22;43236;47.208;7.518;2023-11-22T15:09:03;10.10;84.80
38941;DHT22;43236;47.208;7.518;2023-11-22T15:11:55;10.20;85.00
38941;DHT22;43236;47.208;7.518;2023-11-22T15:14:45;10.20;84.30
38941;DHT22;43236;47.208;7.518;2023-11-22T15:17:33;10.30;85.50
38941;DHT22;43236;47.208;7.518;2023-11-22T15:20:20;10.30;84.40
38941;DHT22;43236;47.208;7.518;2023-11-22T15:23:07;10.30;85.00
38941;DHT22;43236;47.208;7.518;2023-11-22T15:25:54;10.30;85.80
38941;DHT22;43236;47.208;7.518;2023-11-22T15:28:43;10.30;85.30
38941;DHT22;43236;47.208;7.518;2023-11-22T15:31:32;10.30;84.70
38941;DHT22;43236;47.208;7.518;2023-11-22T15:34:20;10.20;84.70
38941;DHT22;43236;47.208;7.518;2023-11-22T15:37:07;10.20;85.20
38941;DHT22;43236;47.208;7.518;2023-11-22T15:39:56;10.20;85.50
38941;DHT22;43236;47.208;7.518;2023-11-22T15:42:43;10.10;85.00
38941;DHT22;43236;47.208;7.518;2023-11-22T15:45:30;10.10;84.70
38941;DHT22;43236;47.208;7.518;2023-11-22T15:48:17;10.00;84.40
38941;DHT22;43236;47.208;7.518;2023-11-22T15:51:06;10.00;85.20
38941;DHT22;43236;47.208;7.518;2023-11-22T15:53:53;10.00;85.70
38941;DHT22;43236;47.208;7.518;2023-11-22T15:56:43;9.90;85.60
38941;DHT22;43236;47.208;7.518;2023-11-22T15:59:30;9.90;86.70
38941;DHT22;43236;47.208;7.518;2023-11-22T16:02:17;9.90;86.90
38941;DHT22;43236;47.208;7.518;2023-11-22T16:05:04;9.90;87.00
38941;DHT22;43236;47.208;7.518;2023-11-22T16:07:53;9.90;86.90
38941;DHT22;43236;47.208;7.518;2023-11-22T16:10:40;9.90;86.00
38941;DHT22;43236;47.208;7.518;2023-11-22T16:13:27;9.90;85.80
38941;DHT22;43236;47.208;7.518;2023-11-22T16:16:14;9.90;85.40
38941;DHT22;43236;47.208;7.518;2023-11-22T16:19:03;9.80;85.40
38941;DHT22;43236;47.208;7.518;2023-11-22T16:21:50;9.70;85.40
38941;DHT22;43236;47.208;7.518;2023-11-22T16:24:39;9.70;85.80
38941;DHT22;43236;47.208;7.518;2023-11-22T16:27:26;9.60;86.10
38941;DHT22;43236;47.208;7.518;2023-11-22T16:30:13;9.60;86.20
38941;DHT22;43236;47.208;7.518;2023-11-22T16:33:00;9.50;86.70
38941;DHT22;43236;47.208;7.518;2023-11-22T16:35:47;9.60;87.00
38941;DHT22;43236;47.208;7.518;2023-11-22T16:38:34;9.50;87.40
38941;DHT22;43236;47.208;7.518;2023-11-22T16:41:23;9.50;86.90
38941;DHT22;43236;47.208;7.518;2023-11-22T16:44:11;9.60;86.30
38941;DHT22;43236;47.208;7.518;2023-11-22T16:46:58;9.60;86.30
38941;DHT22;43236;47.208;7.518;2023-11-22T16:49:46;9.60;86.70
38941;DHT22;43236;47.208;7.518;2023-11-22T16:52:33;9.60;86.80
38941;DHT22;43236;47.208;7.518;2023-11-22T16:55:20;9.60;86.70
38941;DHT22;43236;47.208;7.518;2023-11-22T16:58:08;9.60;87.30
38941;DHT22;43236;47.208;7.518;2023-11-22T17:00:55;9.60;87.20
38941;DHT22;43236;47.208;7.518;2023-11-22T17:03:42;9.60;86.80
38941;DHT22;43236;47.208;7.518;2023-11-22T17:06:30;9.60;87.40
38941;DHT22;43236;47.208;7.518;2023-11-22T17:09:17;9.60;87.00
38941;DHT22;43236;47.208;7.518;2023-11-22T17:12:05;9.60;87.30
38941;DHT22;43236;47.208;7.518;2023-11-22T17:14:53;9.50;86.80
38941;DHT22;43236;47.208;7.518;2023-11-22T17:17:40;9.50;87.10
38941;DHT22;43236;47.208;7.518;2023-11-22T17:20:29;9.50;86.80
38941;DHT22;43236;47.208;7.518;2023-11-22T17:23:16;9.50;86.70
38941;DHT22;43236;47.208;7.518;2023-11-22T17:26:04;9.50;87.40
38941;DHT22;43236;47.208;7.518;2023-11-22T17:28:51;9.40;86.80
38941;DHT22;43236;47.208;7.518;2023-11-22T17:31:39;9.50;87.10
38941;DHT22;43236;47.208;7.518;2023-11-22T17:34:26;9.40;87.00
38941;DHT22;43236;47.208;7.518;2023-11-22T17:37:18;9.40;87.00
38941;DHT22;43236;47.208;7.518;2023-11-22T17:40:06;9.40;87.20
38941;DHT22;43236;47.208;7.518;2023-11-22T17:42:53;9.40;87.50
38941;DHT22;43236;47.208;7.518;2023-11-22T17:45:40;9.40;87.50